sensor_id;sensor_type;location;lat;lon;timestamp;pressure;altitude;pressure_sealevel;temperature;humidity
79366;BME280;68833;53.160;17.920;2023-04-03T00:01:50;101909.83;;;0.07;66.98
79366;BME280;68833;53.160;17.920;2023-04-03T00:04:16;101911.23;;;0.08;67.33
79366;BME280;68833;53.160;17.920;2023-04-03T00:06:43;101910.17;;;0.07;67.42
79366;BME280;68833;53.160;17.920;2023-04-03T00:09:09;101912.80;;;0.05;67.38
79366;BME280;68833;53.160;17.920;2023-04-03T00:11:35;101908.61;;;0.04;67.47
79366;BME280;68833;53.160;17.920;2023-04-03T00:14:02;101910.44;;;0.02;67.55
79366;BME280;68833;53.160;17.920;2023-04-03T00:16:28;101908.81;;;0.01;67.76
79366;BME280;68833;53.160;17.920;2023-04-03T00:18:54;101905.77;;;-0.01;67.11
79366;BME280;68833;53.160;17.920;2023-04-03T00:21:21;101906.34;;;-0.03;67.07
79366;BME280;68833;53.160;17.920;2023-04-03T00:23:47;101902.30;;;-0.07;67.59
79366;BME280;68833;53.160;17.920;2023-04-03T00:26:13;101904.49;;;-0.08;67.35
79366;BME280;68833;53.160;17.920;2023-04-03T00:28:40;101902.10;;;-0.11;67.65
79366;BME280;68833;53.160;17.920;2023-04-03T00:31:07;101901.30;;;-0.13;67.69
79366;BME280;68833;53.160;17.920;2023-04-03T00:33:33;101901.87;;;-0.12;67.68
79366;BME280;68833;53.160;17.920;2023-04-03T00:36:05;101904.58;;;-0.10;67.92
79366;BME280;68833;53.160;17.920;2023-04-03T00:38:32;101899.42;;;-0.10;67.98
79366;BME280;68833;53.160;17.920;2023-04-03T00:40:58;101899.75;;;-0.10;68.04
79366;BME280;68833;53.160;17.920;2023-04-03T00:43:25;101898.70;;;-0.10;68.04
79366;BME280;68833;53.160;17.920;2023-04-03T00:45:56;101900.24;;;-0.10;68.32
79366;BME280;68833;53.160;17.920;2023-04-03T00:48:29;101899.41;;;-0.13;68.04
79366;BME280;68833;53.160;17.920;2023-04-03T00:50:58;101902.84;;;-0.13;68.23
79366;BME280;68833;53.160;17.920;2023-04-03T00:53:35;101903.62;;;-0.15;68.03
79366;BME280;68833;53.160;17.920;2023-04-03T00:56:06;101903.85;;;-0.17;68.37
79366;BME280;68833;53.160;17.920;2023-04-03T00:58:37;101904.80;;;-0.19;68.02
79366;BME280;68833;53.160;17.920;2023-04-03T01:05:33;101906.66;;;-0.26;68.63
79366;BME280;68833;53.160;17.920;2023-04-03T01:08:00;101908.21;;;-0.29;68.29
79366;BME280;68833;53.160;17.920;2023-04-03T01:10:26;101904.37;;;-0.30;68.18
79366;BME280;68833;53.160;17.920;2023-04-03T01:12:52;101902.56;;;-0.28;68.14
79366;BME280;68833;53.160;17.920;2023-04-03T01:15:25;101902.70;;;-0.26;68.55
79366;BME280;68833;53.160;17.920;2023-04-03T01:17:58;101905.86;;;-0.25;68.33
79366;BME280;68833;53.160;17.920;2023-04-03T01:25:44;101910.34;;;-0.25;68.91
79366;BME280;68833;53.160;17.920;2023-04-03T01:28:15;101916.21;;;-0.28;69.07
79366;BME280;68833;53.160;17.920;2023-04-03T01:33:27;101914.22;;;-0.33;68.81
79366;BME280;68833;53.160;17.920;2023-04-03T01:35:54;101914.16;;;-0.37;69.26
79366;BME280;68833;53.160;17.920;2023-04-03T01:38:21;101917.55;;;-0.39;68.84
79366;BME280;68833;53.160;17.920;2023-04-03T01:40:47;101917.48;;;-0.40;68.75
79366;BME280;68833;53.160;17.920;2023-04-03T01:43:14;101915.40;;;-0.40;69.07
79366;BME280;68833;53.160;17.920;2023-04-03T01:45:40;101919.15;;;-0.37;69.12
79366;BME280;68833;53.160;17.920;2023-04-03T01:48:07;101920.68;;;-0.35;69.13
79366;BME280;68833;53.160;17.920;2023-04-03T01:50:33;101921.11;;;-0.33;69.07
79366;BME280;68833;53.160;17.920;2023-04-03T01:53:00;101922.58;;;-0.31;69.56
79366;BME280;68833;53.160;17.920;2023-04-03T01:55:27;101925.88;;;-0.31;69.56
79366;BME280;68833;53.160;17.920;2023-04-03T01:57:53;101927.43;;;-0.31;69.12
79366;BME280;68833;53.160;17.920;2023-04-03T02:00:20;101927.28;;;-0.34;69.22
79366;BME280;68833;53.160;17.920;2023-04-03T02:02:46;101924.20;;;-0.37;69.22
79366;BME280;68833;53.160;17.920;2023-04-03T02:05:13;101927.29;;;-0.40;69.66
79366;BME280;68833;53.160;17.920;2023-04-03T02:07:40;101923.55;;;-0.42;69.42
79366;BME280;68833;53.160;17.920;2023-04-03T02:10:07;101924.95;;;-0.45;69.22
79366;BME280;68833;53.160;17.920;2023-04-03T02:12:34;101926.17;;;-0.48;69.28
79366;BME280;68833;53.160;17.920;2023-04-03T02:15:00;101927.27;;;-0.50;69.44
79366;BME280;68833;53.160;17.920;2023-04-03T02:17:27;101928.14;;;-0.53;69.77
79366;BME280;68833;53.160;17.920;2023-04-03T02:19:54;101925.54;;;-0.53;69.41
79366;BME280;68833;53.160;17.920;2023-04-03T02:22:21;101924.91;;;-0.52;69.59
79366;BME280;68833;53.160;17.920;2023-04-03T02:24:47;101925.52;;;-0.50;69.87
79366;BME280;68833;53.160;17.920;2023-04-03T02:27:14;101928.25;;;-0.48;69.54
79366;BME280;68833;53.160;17.920;2023-04-03T02:29:40;101927.18;;;-0.48;69.42
79366;BME280;68833;53.160;17.920;2023-04-03T02:32:07;101928.69;;;-0.49;69.38
79366;BME280;68833;53.160;17.920;2023-04-03T02:34:33;101933.64;;;-0.50;69.75
79366;BME280;68833;53.160;17.920;2023-04-03T02:37:00;101931.77;;;-0.53;70.22
79366;BME280;68833;53.160;17.920;2023-04-03T02:39:27;101934.23;;;-0.55;69.90
79366;BME280;68833;53.160;17.920;2023-04-03T02:41:54;101936.20;;;-0.57;70.29
79366;BME280;68833;53.160;17.920;2023-04-03T02:44:24;101939.73;;;-0.62;69.81
79366;BME280;68833;53.160;17.920;2023-04-03T02:46:52;101941.19;;;-0.63;70.40
79366;BME280;68833;53.160;17.920;2023-04-03T02:49:18;101946.58;;;-0.65;70.27
79366;BME280;68833;53.160;17.920;2023-04-03T02:51:44;101948.85;;;-0.68;70.68
79366;BME280;68833;53.160;17.920;2023-04-03T02:54:12;101948.48;;;-0.69;70.52
79366;BME280;68833;53.160;17.920;2023-04-03T02:56:40;101954.31;;;-0.69;70.45
79366;BME280;68833;53.160;17.920;2023-04-03T02:59:07;101954.77;;;-0.67;70.33
79366;BME280;68833;53.160;17.920;2023-04-03T03:01:34;101958.82;;;-0.65;70.40
79366;BME280;68833;53.160;17.920;2023-04-03T03:04:00;101955.83;;;-0.64;70.16
79366;BME280;68833;53.160;17.920;2023-04-03T03:06:27;101955.65;;;-0.63;70.77
79366;BME280;68833;53.160;17.920;2023-04-03T03:08:54;101958.05;;;-0.64;70.13
79366;BME280;68833;53.160;17.920;2023-04-03T03:11:20;101961.80;;;-0.65;70.78
79366;BME280;68833;53.160;17.920;2023-04-03T03:13:47;101962.16;;;-0.68;70.68
79366;BME280;68833;53.160;17.920;2023-04-03T03:16:13;101962.73;;;-0.73;70.33
79366;BME280;68833;53.160;17.920;2023-04-03T03:18:39;101960.11;;;-0.76;70.15
79366;BME280;68833;53.160;17.920;2023-04-03T03:21:06;101964.61;;;-0.79;70.55
79366;BME280;68833;53.160;17.920;2023-04-03T03:23:33;101966.33;;;-0.82;70.74
79366;BME280;68833;53.160;17.920;2023-04-03T03:26:02;101965.02;;;-0.84;70.67
79366;BME280;68833;53.160;17.920;2023-04-03T03:28:29;101964.55;;;-0.83;70.74
79366;BME280;68833;53.160;17.920;2023-04-03T03:30:57;101970.04;;;-0.81;70.74
79366;BME280;68833;53.160;17.920;2023-04-03T03:33:24;101967.56;;;-0.79;70.62
79366;BME280;68833;53.160;17.920;2023-04-03T03:35:51;101969.76;;;-0.77;70.58
79366;BME280;68833;53.160;17.920;2023-04-03T03:38:19;101969.82;;;-0.75;70.35
79366;BME280;68833;53.160;17.920;2023-04-03T03:40:47;101972.20;;;-0.73;70.63
79366;BME280;68833;53.160;17.920;2023-04-03T03:43:17;101975.28;;;-0.74;70.76
79366;BME280;68833;53.160;17.920;2023-04-03T03:45:44;101975.80;;;-0.74;70.76
79366;BME280;68833;53.160;17.920;2023-04-03T03:48:11;101977.02;;;-0.76;70.91
79366;BME280;68833;53.160;17.920;2023-04-03T03:50:38;101976.52;;;-0.79;71.06
79366;BME280;68833;53.160;17.920;2023-04-03T03:53:04;101977.77;;;-0.81;70.74
79366;BME280;68833;53.160;17.920;2023-04-03T03:55:31;101979.55;;;-0.83;71.22
79366;BME280;68833;53.160;17.920;2023-04-03T03:57:58;101980.41;;;-0.87;70.54
79366;BME280;68833;53.160;17.920;2023-04-03T04:00:28;101982.35;;;-0.89;71.37
79366;BME280;68833;53.160;17.920;2023-04-03T04:02:54;101985.25;;;-0.89;71.29
79366;BME280;68833;53.160;17.920;2023-04-03T04:05:22;101984.35;;;-0.87;71.10
79366;BME280;68833;53.160;17.920;2023-04-03T04:07:49;101988.27;;;-0.85;71.41
79366;BME280;68833;53.160;17.920;2023-04-03T04:10:15;101988.03;;;-0.83;70.96
79366;BME280;68833;53.160;17.920;2023-04-03T04:12:42;101989.30;;;-0.81;70.90
79366;BME280;68833;53.160;17.920;2023-04-03T04:15:09;101990.04;;;-0.81;71.47
79366;BME280;68833;53.160;17.920;2023-04-03T04:17:36;101990.68;;;-0.81;71.61
79366;BME280;68833;53.160;17.920;2023-04-03T04:20:03;101995.06;;;-0.83;71.54
79366;BME280;68833;53.160;17.920;2023-04-03T04:22:31;102004.74;;;-0.86;71.36
79366;BME280;68833;53.160;17.920;2023-04-03T04:24:58;102006.91;;;-0.88;71.57
79366;BME280;68833;53.160;17.920;2023-04-03T04:27:25;102010.96;;;-0.89;70.85
79366;BME280;68833;53.160;17.920;2023-04-03T04:29:51;102009.11;;;-0.91;71.72
79366;BME280;68833;53.160;17.920;2023-04-03T04:32:18;102010.25;;;-0.92;71.61
79366;BME280;68833;53.160;17.920;2023-04-03T04:34:45;102009.31;;;-0.94;71.61
79366;BME280;68833;53.160;17.920;2023-04-03T04:37:11;102006.21;;;-0.93;71.05
79366;BME280;68833;53.160;17.920;2023-04-03T04:39:37;102009.81;;;-0.91;71.56
79366;BME280;68833;53.160;17.920;2023-04-03T04:42:04;102009.08;;;-0.89;70.90
79366;BME280;68833;53.160;17.920;2023-04-03T04:44:33;102011.83;;;-0.86;71.70
79366;BME280;68833;53.160;17.920;2023-04-03T04:46:59;102008.81;;;-0.84;71.05
79366;BME280;68833;53.160;17.920;2023-04-03T04:49:27;102014.80;;;-0.82;71.48
79366;BME280;68833;53.160;17.920;2023-04-03T04:51:53;102015.50;;;-0.82;71.38
79366;BME280;68833;53.160;17.920;2023-04-03T04:54:24;102015.96;;;-0.83;71.11
79366;BME280;68833;53.160;17.920;2023-04-03T04:56:51;102018.53;;;-0.83;71.83
79366;BME280;68833;53.160;17.920;2023-04-03T04:59:18;102020.80;;;-0.86;71.40
79366;BME280;68833;53.160;17.920;2023-04-03T05:01:44;102023.44;;;-0.88;71.33
79366;BME280;68833;53.160;17.920;2023-04-03T05:04:14;102027.01;;;-0.89;71.34
79366;BME280;68833;53.160;17.920;2023-04-03T05:06:41;102029.80;;;-0.91;71.38
79366;BME280;68833;53.160;17.920;2023-04-03T05:09:11;102032.84;;;-0.92;71.71
79366;BME280;68833;53.160;17.920;2023-04-03T05:11:39;102032.39;;;-0.94;71.40
79366;BME280;68833;53.160;17.920;2023-04-03T05:14:06;102035.70;;;-0.93;71.49
79366;BME280;68833;53.160;17.920;2023-04-03T05:16:33;102036.98;;;-0.89;71.24
79366;BME280;68833;53.160;17.920;2023-04-03T05:19:00;102041.37;;;-0.85;71.47
79366;BME280;68833;53.160;17.920;2023-04-03T05:21:27;102038.83;;;-0.81;71.49
79366;BME280;68833;53.160;17.920;2023-04-03T05:23:59;102037.20;;;-0.79;71.55
79366;BME280;68833;53.160;17.920;2023-04-03T05:26:32;102040.60;;;-0.78;71.13
79366;BME280;68833;53.160;17.920;2023-04-03T05:28:59;102037.61;;;-0.75;70.97
79366;BME280;68833;53.160;17.920;2023-04-03T05:31:25;102041.52;;;-0.71;71.18
79366;BME280;68833;53.160;17.920;2023-04-03T05:33:55;102042.52;;;-0.65;70.75
79366;BME280;68833;53.160;17.920;2023-04-03T05:36:22;102043.41;;;-0.62;70.71
79366;BME280;68833;53.160;17.920;2023-04-03T05:38:51;102039.92;;;-0.57;71.11
79366;BME280;68833;53.160;17.920;2023-04-03T05:41:18;102038.00;;;-0.51;70.65
79366;BME280;68833;53.160;17.920;2023-04-03T05:43:46;102038.02;;;-0.44;70.68
79366;BME280;68833;53.160;17.920;2023-04-03T05:46:18;102043.01;;;-0.39;70.85
79366;BME280;68833;53.160;17.920;2023-04-03T05:48:46;102043.45;;;-0.28;70.83
79366;BME280;68833;53.160;17.920;2023-04-03T05:51:19;102041.60;;;-0.18;70.49
79366;BME280;68833;53.160;17.920;2023-04-03T05:53:47;102039.58;;;-0.08;70.11
79366;BME280;68833;53.160;17.920;2023-04-03T05:56:14;102040.63;;;0.02;69.76
79366;BME280;68833;53.160;17.920;2023-04-03T05:58:40;102040.48;;;0.03;69.52
79366;BME280;68833;53.160;17.920;2023-04-03T06:01:06;102042.41;;;0.03;69.68
79366;BME280;68833;53.160;17.920;2023-04-03T06:03:34;102045.77;;;0.04;69.62
79366;BME280;68833;53.160;17.920;2023-04-03T06:06:03;102042.82;;;0.04;68.87
79366;BME280;68833;53.160;17.920;2023-04-03T06:08:30;102045.48;;;0.02;69.02
79366;BME280;68833;53.160;17.920;2023-04-03T06:10:57;102048.93;;;0.02;69.06
79366;BME280;68833;53.160;17.920;2023-04-03T06:13:23;102045.04;;;0.00;68.62
79366;BME280;68833;53.160;17.920;2023-04-03T06:15:51;102047.40;;;0.03;68.77
79366;BME280;68833;53.160;17.920;2023-04-03T06:18:17;102046.87;;;0.11;68.24
79366;BME280;68833;53.160;17.920;2023-04-03T06:20:43;102050.67;;;0.18;68.11
79366;BME280;68833;53.160;17.920;2023-04-03T06:23:10;102050.30;;;0.24;67.55
79366;BME280;68833;53.160;17.920;2023-04-03T06:25:36;102050.91;;;0.35;67.55
79366;BME280;68833;53.160;17.920;2023-04-03T06:28:02;102055.16;;;0.46;66.73
79366;BME280;68833;53.160;17.920;2023-04-03T06:30:29;102054.26;;;0.59;66.80
79366;BME280;68833;53.160;17.920;2023-04-03T06:32:55;102053.54;;;0.71;66.16
79366;BME280;68833;53.160;17.920;2023-04-03T06:35:22;102057.24;;;0.82;65.43
79366;BME280;68833;53.160;17.920;2023-04-03T06:37:49;102057.33;;;0.94;65.89
79366;BME280;68833;53.160;17.920;2023-04-03T06:40:21;102061.45;;;1.06;66.31
79366;BME280;68833;53.160;17.920;2023-04-03T06:42:48;102064.85;;;1.18;64.75
79366;BME280;68833;53.160;17.920;2023-04-03T06:45:14;102070.42;;;1.30;63.66
79366;BME280;68833;53.160;17.920;2023-04-03T06:47:40;102068.38;;;1.40;63.60
79366;BME280;68833;53.160;17.920;2023-04-03T06:50:09;102070.69;;;1.42;63.06
79366;BME280;68833;53.160;17.920;2023-04-03T06:52:37;102072.33;;;1.40;62.11
79366;BME280;68833;53.160;17.920;2023-04-03T06:55:06;102081.94;;;1.39;62.11
79366;BME280;68833;53.160;17.920;2023-04-03T06:57:32;102081.30;;;1.43;61.96
79366;BME280;68833;53.160;17.920;2023-04-03T06:59:58;102082.92;;;1.41;60.84
79366;BME280;68833;53.160;17.920;2023-04-03T07:02:25;102087.97;;;1.38;61.45
79366;BME280;68833;53.160;17.920;2023-04-03T07:04:52;102088.54;;;1.35;61.35
79366;BME280;68833;53.160;17.920;2023-04-03T07:07:18;102097.64;;;1.37;61.32
79366;BME280;68833;53.160;17.920;2023-04-03T07:09:45;102098.70;;;1.41;60.93
79366;BME280;68833;53.160;17.920;2023-04-03T07:12:14;102093.27;;;1.47;60.86
79366;BME280;68833;53.160;17.920;2023-04-03T07:14:41;102098.27;;;1.54;61.59
79366;BME280;68833;53.160;17.920;2023-04-03T07:17:07;102093.33;;;1.62;61.01
79366;BME280;68833;53.160;17.920;2023-04-03T07:19:33;102100.59;;;1.72;60.72
79366;BME280;68833;53.160;17.920;2023-04-03T07:22:00;102100.98;;;1.76;59.91
79366;BME280;68833;53.160;17.920;2023-04-03T07:24:26;102106.91;;;1.77;58.05
79366;BME280;68833;53.160;17.920;2023-04-03T07:26:53;102109.21;;;1.75;58.26
79366;BME280;68833;53.160;17.920;2023-04-03T07:29:20;102111.73;;;1.73;57.87
79366;BME280;68833;53.160;17.920;2023-04-03T07:31:47;102116.19;;;1.76;58.78
79366;BME280;68833;53.160;17.920;2023-04-03T07:34:14;102114.12;;;1.76;57.20
79366;BME280;68833;53.160;17.920;2023-04-03T07:36:40;102117.20;;;1.75;57.55
79366;BME280;68833;53.160;17.920;2023-04-03T07:39:06;102121.27;;;1.73;58.19
79366;BME280;68833;53.160;17.920;2023-04-03T07:41:34;102122.38;;;1.72;57.42
79366;BME280;68833;53.160;17.920;2023-04-03T07:44:00;102114.85;;;1.70;57.15
79366;BME280;68833;53.160;17.920;2023-04-03T07:46:26;102116.30;;;1.67;57.03
79366;BME280;68833;53.160;17.920;2023-04-03T07:48:53;102121.42;;;1.66;57.02
79366;BME280;68833;53.160;17.920;2023-04-03T07:51:19;102121.35;;;1.68;57.00
79366;BME280;68833;53.160;17.920;2023-04-03T07:53:46;102119.02;;;1.70;56.13
79366;BME280;68833;53.160;17.920;2023-04-03T07:56:12;102120.06;;;1.70;56.06
79366;BME280;68833;53.160;17.920;2023-04-03T07:58:38;102123.02;;;1.67;55.98
79366;BME280;68833;53.160;17.920;2023-04-03T08:01:05;102121.48;;;1.64;56.43
79366;BME280;68833;53.160;17.920;2023-04-03T08:03:32;102121.42;;;1.63;55.13
79366;BME280;68833;53.160;17.920;2023-04-03T08:06:07;102122.83;;;1.60;55.00
79366;BME280;68833;53.160;17.920;2023-04-03T08:08:34;102122.23;;;1.58;53.75
79366;BME280;68833;53.160;17.920;2023-04-03T08:11:02;102121.25;;;1.56;54.45
79366;BME280;68833;53.160;17.920;2023-04-03T08:13:29;102125.79;;;1.60;54.38
79366;BME280;68833;53.160;17.920;2023-04-03T08:15:56;102124.69;;;1.69;53.99
79366;BME280;68833;53.160;17.920;2023-04-03T08:18:23;102121.10;;;1.80;53.89
79366;BME280;68833;53.160;17.920;2023-04-03T08:20:51;102126.42;;;1.94;53.06
79366;BME280;68833;53.160;17.920;2023-04-03T08:23:18;102123.91;;;2.06;53.31
79366;BME280;68833;53.160;17.920;2023-04-03T08:25:45;102125.05;;;2.19;53.13
79366;BME280;68833;53.160;17.920;2023-04-03T08:28:12;102123.96;;;2.32;52.73
79366;BME280;68833;53.160;17.920;2023-04-03T08:30:40;102121.39;;;2.47;53.40
79366;BME280;68833;53.160;17.920;2023-04-03T08:33:07;102129.59;;;2.64;53.86
79366;BME280;68833;53.160;17.920;2023-04-03T08:35:41;102130.52;;;2.76;52.70
79366;BME280;68833;53.160;17.920;2023-04-03T08:38:09;102128.04;;;2.86;52.28
79366;BME280;68833;53.160;17.920;2023-04-03T08:40:36;102125.86;;;2.96;52.70
79366;BME280;68833;53.160;17.920;2023-04-03T08:45:44;102128.95;;;3.18;50.30
79366;BME280;68833;53.160;17.920;2023-04-03T08:48:36;102125.11;;;3.26;49.41
79366;BME280;68833;53.160;17.920;2023-04-03T08:51:12;102126.06;;;3.32;49.14
79366;BME280;68833;53.160;17.920;2023-04-03T08:54:14;102123.70;;;3.41;49.01
79366;BME280;68833;53.160;17.920;2023-04-03T08:56:45;102120.96;;;3.54;49.36
79366;BME280;68833;53.160;17.920;2023-04-03T08:59:14;102117.20;;;3.64;49.63
79366;BME280;68833;53.160;17.920;2023-04-03T09:01:46;102120.21;;;3.78;49.41
79366;BME280;68833;53.160;17.920;2023-04-03T09:04:16;102117.05;;;3.94;49.36
79366;BME280;68833;53.160;17.920;2023-04-03T09:06:45;102122.34;;;4.09;49.16
79366;BME280;68833;53.160;17.920;2023-04-03T09:09:31;102119.89;;;4.21;48.70
79366;BME280;68833;53.160;17.920;2023-04-03T09:12:49;102121.91;;;4.33;49.19
79366;BME280;68833;53.160;17.920;2023-04-03T09:18:05;102122.43;;;4.50;48.31
79366;BME280;68833;53.160;17.920;2023-04-03T09:23:15;102134.50;;;4.52;47.88
79366;BME280;68833;53.160;17.920;2023-04-03T09:25:44;102131.02;;;4.47;47.56
79366;BME280;68833;53.160;17.920;2023-04-03T09:28:11;102125.39;;;4.41;47.44
79366;BME280;68833;53.160;17.920;2023-04-03T09:30:38;102123.62;;;4.41;46.37
79366;BME280;68833;53.160;17.920;2023-04-03T09:33:04;102121.14;;;4.48;45.66
79366;BME280;68833;53.160;17.920;2023-04-03T09:35:34;102117.32;;;4.58;46.13
79366;BME280;68833;53.160;17.920;2023-04-03T09:38:22;102119.98;;;4.68;46.69
79366;BME280;68833;53.160;17.920;2023-04-03T09:43:31;102139.87;;;4.74;43.62
79366;BME280;68833;53.160;17.920;2023-04-03T09:46:36;102138.89;;;4.62;44.56
79366;BME280;68833;53.160;17.920;2023-04-03T09:49:04;102136.69;;;4.64;44.08
79366;BME280;68833;53.160;17.920;2023-04-03T09:51:31;102132.05;;;4.61;43.74
79366;BME280;68833;53.160;17.920;2023-04-03T09:53:58;102127.41;;;4.62;44.18
79366;BME280;68833;53.160;17.920;2023-04-03T09:56:27;102129.47;;;4.66;44.03
79366;BME280;68833;53.160;17.920;2023-04-03T10:01:38;102128.75;;;4.74;43.14
79366;BME280;68833;53.160;17.920;2023-04-03T10:04:09;102122.61;;;4.78;43.54
79366;BME280;68833;53.160;17.920;2023-04-03T10:06:43;102121.46;;;4.84;44.07
79366;BME280;68833;53.160;17.920;2023-04-03T10:12:04;102140.01;;;4.77;43.46
79366;BME280;68833;53.160;17.920;2023-04-03T10:20:39;102134.86;;;4.66;43.42
79366;BME280;68833;53.160;17.920;2023-04-03T10:23:31;102126.36;;;4.76;43.70
79366;BME280;68833;53.160;17.920;2023-04-03T10:26:02;102129.86;;;4.81;44.01
79366;BME280;68833;53.160;17.920;2023-04-03T10:28:57;102130.52;;;4.89;43.12
79366;BME280;68833;53.160;17.920;2023-04-03T10:31:41;102125.43;;;4.88;42.60
79366;BME280;68833;53.160;17.920;2023-04-03T10:34:31;102109.86;;;4.82;42.61
79366;BME280;68833;53.160;17.920;2023-04-03T10:37:24;102128.69;;;4.92;42.75
79366;BME280;68833;53.160;17.920;2023-04-03T10:40:09;102124.90;;;5.02;42.06
79366;BME280;68833;53.160;17.920;2023-04-03T10:45:32;102126.67;;;4.94;43.25
79366;BME280;68833;53.160;17.920;2023-04-03T10:48:11;102124.60;;;4.84;42.82
79366;BME280;68833;53.160;17.920;2023-04-03T10:53:51;102132.77;;;4.61;43.22
79366;BME280;68833;53.160;17.920;2023-04-03T10:56:38;102133.27;;;4.65;43.41
79366;BME280;68833;53.160;17.920;2023-04-03T11:01:56;102124.98;;;4.76;43.45
79366;BME280;68833;53.160;17.920;2023-04-03T11:04:27;102123.77;;;4.81;42.38
79366;BME280;68833;53.160;17.920;2023-04-03T11:07:29;102121.02;;;4.77;42.00
79366;BME280;68833;53.160;17.920;2023-04-03T11:10:23;102120.90;;;4.70;42.22
79366;BME280;68833;53.160;17.920;2023-04-03T11:12:59;102121.71;;;4.73;41.83
79366;BME280;68833;53.160;17.920;2023-04-03T11:15:30;102117.09;;;4.79;42.48
79366;BME280;68833;53.160;17.920;2023-04-03T11:18:04;102116.67;;;4.91;42.77
79366;BME280;68833;53.160;17.920;2023-04-03T11:20:33;102107.73;;;5.04;42.46
79366;BME280;68833;53.160;17.920;2023-04-03T11:23:03;102102.79;;;5.16;42.17
79366;BME280;68833;53.160;17.920;2023-04-03T11:25:36;102099.34;;;5.22;41.64
79366;BME280;68833;53.160;17.920;2023-04-03T11:37:01;102093.75;;;5.22;41.91
79366;BME280;68833;53.160;17.920;2023-04-03T11:39:34;102091.62;;;5.31;42.08
79366;BME280;68833;53.160;17.920;2023-04-03T11:42:15;102088.34;;;5.37;42.66
79366;BME280;68833;53.160;17.920;2023-04-03T11:44:43;102084.94;;;5.34;42.72
79366;BME280;68833;53.160;17.920;2023-04-03T11:47:10;102092.17;;;5.27;41.93
79366;BME280;68833;53.160;17.920;2023-04-03T11:49:51;102091.20;;;5.19;42.09
79366;BME280;68833;53.160;17.920;2023-04-03T12:00:51;102096.73;;;4.99;41.31
79366;BME280;68833;53.160;17.920;2023-04-03T12:08:44;102082.42;;;5.07;41.72
79366;BME280;68833;53.160;17.920;2023-04-03T12:26:51;102077.00;;;4.74;42.03
79366;BME280;68833;53.160;17.920;2023-04-03T12:34:55;102062.82;;;4.89;42.76
79366;BME280;68833;53.160;17.920;2023-04-03T12:48:26;102068.39;;;4.80;42.08
79366;BME280;68833;53.160;17.920;2023-04-03T12:50:54;102067.63;;;4.78;42.22
79366;BME280;68833;53.160;17.920;2023-04-03T12:53:25;102064.67;;;4.84;41.94
79366;BME280;68833;53.160;17.920;2023-04-03T12:55:56;102057.05;;;4.94;42.14
79366;BME280;68833;53.160;17.920;2023-04-03T12:58:26;102056.17;;;5.03;42.27
79366;BME280;68833;53.160;17.920;2023-04-03T13:01:17;102052.81;;;5.12;42.50
79366;BME280;68833;53.160;17.920;2023-04-03T13:03:48;102064.54;;;5.14;41.96
79366;BME280;68833;53.160;17.920;2023-04-03T13:06:23;102067.70;;;5.10;41.98
79366;BME280;68833;53.160;17.920;2023-04-03T13:08:53;102069.89;;;5.03;41.42
79366;BME280;68833;53.160;17.920;2023-04-03T13:11:21;102066.94;;;4.93;42.56
79366;BME280;68833;53.160;17.920;2023-04-03T13:16:26;102068.66;;;4.83;41.39
79366;BME280;68833;53.160;17.920;2023-04-03T13:18:54;102061.83;;;4.81;41.47
79366;BME280;68833;53.160;17.920;2023-04-03T13:21:24;102056.29;;;4.87;40.81
79366;BME280;68833;53.160;17.920;2023-04-03T13:23:54;102053.21;;;5.04;41.02
79366;BME280;68833;53.160;17.920;2023-04-03T13:26:24;102047.21;;;5.16;40.75
79366;BME280;68833;53.160;17.920;2023-04-03T13:28:53;102041.83;;;5.22;41.26
79366;BME280;68833;53.160;17.920;2023-04-03T13:31:26;102039.92;;;5.32;41.20
79366;BME280;68833;53.160;17.920;2023-04-03T13:41:55;102038.33;;;5.16;41.15
79366;BME280;68833;53.160;17.920;2023-04-03T13:46:50;102052.25;;;5.06;41.43
79366;BME280;68833;53.160;17.920;2023-04-03T13:49:43;102047.27;;;5.03;41.94
79366;BME280;68833;53.160;17.920;2023-04-03T13:52:44;102045.13;;;5.06;42.47
79366;BME280;68833;53.160;17.920;2023-04-03T13:55:24;102043.23;;;5.07;41.91
79366;BME280;68833;53.160;17.920;2023-04-03T13:58:00;102048.49;;;5.03;41.99
79366;BME280;68833;53.160;17.920;2023-04-03T14:00:49;102043.82;;;4.99;42.55
79366;BME280;68833;53.160;17.920;2023-04-03T14:05:48;102048.42;;;4.82;42.77
79366;BME280;68833;53.160;17.920;2023-04-03T14:08:14;102044.95;;;4.77;43.16
79366;BME280;68833;53.160;17.920;2023-04-03T14:10:40;102041.94;;;4.80;43.16
79366;BME280;68833;53.160;17.920;2023-04-03T14:13:11;102036.54;;;4.85;43.35
79366;BME280;68833;53.160;17.920;2023-04-03T14:15:39;102032.94;;;4.96;43.22
79366;BME280;68833;53.160;17.920;2023-04-03T14:18:06;102033.40;;;5.09;43.09
79366;BME280;68833;53.160;17.920;2023-04-03T14:20:32;102025.71;;;5.13;42.91
79366;BME280;68833;53.160;17.920;2023-04-03T14:22:59;102034.64;;;5.10;42.75
79366;BME280;68833;53.160;17.920;2023-04-03T14:25:25;102036.52;;;5.04;42.95
79366;BME280;68833;53.160;17.920;2023-04-03T14:27:53;102043.36;;;4.96;43.11
79366;BME280;68833;53.160;17.920;2023-04-03T14:30:27;102042.28;;;4.85;44.08
79366;BME280;68833;53.160;17.920;2023-04-03T14:32:54;102045.94;;;4.75;44.90
79366;BME280;68833;53.160;17.920;2023-04-03T14:35:21;102045.48;;;4.68;44.83
79366;BME280;68833;53.160;17.920;2023-04-03T14:37:49;102041.89;;;4.60;45.62
79366;BME280;68833;53.160;17.920;2023-04-03T14:40:21;102040.58;;;4.53;45.23
79366;BME280;68833;53.160;17.920;2023-04-03T14:42:48;102038.33;;;4.48;45.68
79366;BME280;68833;53.160;17.920;2023-04-03T14:45:16;102035.77;;;4.46;45.85
79366;BME280;68833;53.160;17.920;2023-04-03T14:47:46;102038.27;;;4.42;45.55
79366;BME280;68833;53.160;17.920;2023-04-03T14:50:16;102039.89;;;4.39;46.02
79366;BME280;68833;53.160;17.920;2023-04-03T14:52:43;102037.57;;;4.38;45.51